sensor_id;sensor_type;location;lat;lon;timestamp;pressure;altitude;pressure_sealevel;temperature;humidity
19526;BME280;9907;42.676;26.348;2023-03-18T00:00:35;99364.03;;;5.91;51.87
19526;BME280;9907;42.676;26.348;2023-03-18T00:03:01;99369.69;;;5.84;51.33
19526;BME280;9907;42.676;26.348;2023-03-18T00:05:27;99367.03;;;5.84;51.20
19526;BME280;9907;42.676;26.348;2023-03-18T00:07:52;99363.66;;;5.82;51.19
19526;BME280;9907;42.676;26.348;2023-03-18T00:10:21;99374.09;;;5.71;52.35
19526;BME280;9907;42.676;26.348;2023-03-18T00:12:47;99355.13;;;5.77;51.84
19526;BME280;9907;42.676;26.348;2023-03-18T00:15:14;99353.19;;;5.67;52.41
19526;BME280;9907;42.676;26.348;2023-03-18T00:17:40;99355.19;;;5.63;53.44
19526;BME280;9907;42.676;26.348;2023-03-18T00:20:07;99362.19;;;5.64;52.88
19526;BME280;9907;42.676;26.348;2023-03-18T00:22:35;99362.94;;;5.66;51.41
19526;BME280;9907;42.676;26.348;2023-03-18T00:25:03;99350.03;;;5.74;50.88
19526;BME280;9907;42.676;26.348;2023-03-18T00:27:29;99347.59;;;5.71;50.59
19526;BME280;9907;42.676;26.348;2023-03-18T00:29:55;99343.72;;;5.63;52.65
19526;BME280;9907;42.676;26.348;2023-03-18T00:32:25;99357.47;;;5.55;53.71
19526;BME280;9907;42.676;26.348;2023-03-18T00:34:52;99343.31;;;5.42;55.00
19526;BME280;9907;42.676;26.348;2023-03-18T00:37:18;99335.38;;;5.42;53.82
19526;BME280;9907;42.676;26.348;2023-03-18T00:40:06;99340.66;;;5.42;54.52
19526;BME280;9907;42.676;26.348;2023-03-18T00:42:36;99331.00;;;5.41;54.44
19526;BME280;9907;42.676;26.348;2023-03-18T00:45:12;99333.66;;;5.41;54.50
19526;BME280;9907;42.676;26.348;2023-03-18T00:47:41;99331.94;;;5.40;54.51
19526;BME280;9907;42.676;26.348;2023-03-18T00:50:08;99330.63;;;5.33;55.25
19526;BME280;9907;42.676;26.348;2023-03-18T00:52:35;99334.06;;;5.35;54.68
19526;BME280;9907;42.676;26.348;2023-03-18T00:55:02;99325.53;;;5.30;54.75
19526;BME280;9907;42.676;26.348;2023-03-18T00:57:28;99337.56;;;5.21;55.00
19526;BME280;9907;42.676;26.348;2023-03-18T00:59:57;99328.97;;;5.18;54.18
19526;BME280;9907;42.676;26.348;2023-03-18T01:02:23;99328.59;;;5.24;54.12
19526;BME280;9907;42.676;26.348;2023-03-18T01:04:49;99317.81;;;5.27;52.97
19526;BME280;9907;42.676;26.348;2023-03-18T01:07:15;99306.44;;;5.25;52.74
19526;BME280;9907;42.676;26.348;2023-03-18T01:09:40;99317.69;;;5.28;51.10
19526;BME280;9907;42.676;26.348;2023-03-18T01:12:08;99324.91;;;5.26;52.17
19526;BME280;9907;42.676;26.348;2023-03-18T01:14:35;99326.88;;;5.23;52.69
19526;BME280;9907;42.676;26.348;2023-03-18T01:17:04;99322.94;;;5.16;52.73
19526;BME280;9907;42.676;26.348;2023-03-18T01:19:29;99327.16;;;5.18;52.50
19526;BME280;9907;42.676;26.348;2023-03-18T01:21:55;99333.06;;;5.09;53.22
19526;BME280;9907;42.676;26.348;2023-03-18T01:24:20;99311.97;;;5.08;52.88
19526;BME280;9907;42.676;26.348;2023-03-18T01:26:47;99322.19;;;5.00;52.47
19526;BME280;9907;42.676;26.348;2023-03-18T01:29:12;99320.19;;;5.17;51.45
19526;BME280;9907;42.676;26.348;2023-03-18T01:31:38;99319.34;;;5.17;51.22
19526;BME280;9907;42.676;26.348;2023-03-18T01:34:04;99314.22;;;5.14;51.26
19526;BME280;9907;42.676;26.348;2023-03-18T01:36:30;99326.97;;;5.21;51.34
19526;BME280;9907;42.676;26.348;2023-03-18T01:38:55;99313.47;;;5.12;51.90
19526;BME280;9907;42.676;26.348;2023-03-18T01:41:23;99325.97;;;5.10;52.43
19526;BME280;9907;42.676;26.348;2023-03-18T01:43:50;99322.34;;;5.11;52.22
19526;BME280;9907;42.676;26.348;2023-03-18T01:46:39;99322.00;;;5.17;51.79
19526;BME280;9907;42.676;26.348;2023-03-18T01:49:22;99325.94;;;5.24;51.33
19526;BME280;9907;42.676;26.348;2023-03-18T01:52:16;99331.41;;;5.35;51.58
19526;BME280;9907;42.676;26.348;2023-03-18T01:54:54;99332.63;;;5.29;51.29
19526;BME280;9907;42.676;26.348;2023-03-18T01:57:26;99336.53;;;5.24;50.69
19526;BME280;9907;42.676;26.348;2023-03-18T01:59:55;99330.66;;;5.19;51.04
19526;BME280;9907;42.676;26.348;2023-03-18T02:02:22;99341.19;;;5.20;50.24
19526;BME280;9907;42.676;26.348;2023-03-18T02:04:54;99340.03;;;5.10;51.67
19526;BME280;9907;42.676;26.348;2023-03-18T02:07:29;99328.97;;;5.04;52.57
19526;BME280;9907;42.676;26.348;2023-03-18T02:10:03;99335.06;;;5.06;52.91
19526;BME280;9907;42.676;26.348;2023-03-18T02:12:35;99339.78;;;5.01;52.53
19526;BME280;9907;42.676;26.348;2023-03-18T02:15:06;99341.47;;;5.02;52.92
19526;BME280;9907;42.676;26.348;2023-03-18T02:17:37;99340.72;;;5.00;52.89
19526;BME280;9907;42.676;26.348;2023-03-18T02:22:48;99350.91;;;4.91;52.42
19526;BME280;9907;42.676;26.348;2023-03-18T02:25:53;99343.16;;;4.88;52.68
19526;BME280;9907;42.676;26.348;2023-03-18T02:28:25;99340.44;;;4.90;52.83
19526;BME280;9907;42.676;26.348;2023-03-18T02:30:58;99341.84;;;4.96;52.06
19526;BME280;9907;42.676;26.348;2023-03-18T02:33:30;99348.97;;;4.95;52.56
19526;BME280;9907;42.676;26.348;2023-03-18T02:36:03;99345.53;;;4.79;52.44
19526;BME280;9907;42.676;26.348;2023-03-18T02:38:30;99343.56;;;4.82;52.08
19526;BME280;9907;42.676;26.348;2023-03-18T02:40:57;99348.25;;;4.77;52.57
19526;BME280;9907;42.676;26.348;2023-03-18T02:43:28;99342.78;;;4.66;53.30
19526;BME280;9907;42.676;26.348;2023-03-18T02:46:17;99348.38;;;4.62;53.71
19526;BME280;9907;42.676;26.348;2023-03-18T02:48:47;99340.59;;;4.59;52.53
19526;BME280;9907;42.676;26.348;2023-03-18T02:51:15;99352.16;;;4.58;52.72
19526;BME280;9907;42.676;26.348;2023-03-18T02:53:42;99347.00;;;4.55;53.16
19526;BME280;9907;42.676;26.348;2023-03-18T02:56:08;99342.22;;;4.61;53.43
19526;BME280;9907;42.676;26.348;2023-03-18T02:58:34;99351.09;;;4.60;53.13
19526;BME280;9907;42.676;26.348;2023-03-18T03:01:08;99349.50;;;4.58;53.41
19526;BME280;9907;42.676;26.348;2023-03-18T03:03:35;99345.88;;;4.59;53.52
19526;BME280;9907;42.676;26.348;2023-03-18T03:06:01;99349.00;;;4.51;53.83
19526;BME280;9907;42.676;26.348;2023-03-18T03:08:27;99343.16;;;4.46;54.14
19526;BME280;9907;42.676;26.348;2023-03-18T03:10:53;99352.47;;;4.37;54.16
19526;BME280;9907;42.676;26.348;2023-03-18T03:13:21;99354.16;;;4.24;54.48
19526;BME280;9907;42.676;26.348;2023-03-18T03:15:47;99355.50;;;4.31;54.21
19526;BME280;9907;42.676;26.348;2023-03-18T03:18:14;99353.69;;;4.32;54.05
19526;BME280;9907;42.676;26.348;2023-03-18T03:20:39;99350.72;;;4.22;54.72
19526;BME280;9907;42.676;26.348;2023-03-18T03:23:07;99354.31;;;4.21;54.35
19526;BME280;9907;42.676;26.348;2023-03-18T03:25:35;99358.78;;;4.21;54.45
19526;BME280;9907;42.676;26.348;2023-03-18T03:28:05;99357.72;;;4.23;55.29
19526;BME280;9907;42.676;26.348;2023-03-18T03:30:32;99348.72;;;4.12;55.04
19526;BME280;9907;42.676;26.348;2023-03-18T03:32:58;99351.81;;;4.04;54.87
19526;BME280;9907;42.676;26.348;2023-03-18T03:35:24;99352.25;;;3.97;55.01
19526;BME280;9907;42.676;26.348;2023-03-18T03:37:50;99360.66;;;4.03;55.63
19526;BME280;9907;42.676;26.348;2023-03-18T03:40:19;99354.56;;;4.03;55.45
19526;BME280;9907;42.676;26.348;2023-03-18T03:42:46;99352.59;;;4.06;54.71
19526;BME280;9907;42.676;26.348;2023-03-18T03:45:14;99354.00;;;4.12;55.16
19526;BME280;9907;42.676;26.348;2023-03-18T03:47:41;99354.00;;;4.12;54.78
19526;BME280;9907;42.676;26.348;2023-03-18T03:50:07;99357.25;;;4.17;54.79
19526;BME280;9907;42.676;26.348;2023-03-18T03:52:38;99363.84;;;4.10;54.82
19526;BME280;9907;42.676;26.348;2023-03-18T03:55:06;99365.47;;;3.97;54.67
19526;BME280;9907;42.676;26.348;2023-03-18T03:57:33;99359.06;;;4.01;54.21
19526;BME280;9907;42.676;26.348;2023-03-18T04:00:00;99359.91;;;4.01;54.67
19526;BME280;9907;42.676;26.348;2023-03-18T04:02:26;99356.50;;;3.99;54.43
19526;BME280;9907;42.676;26.348;2023-03-18T04:04:52;99354.88;;;3.97;54.41
19526;BME280;9907;42.676;26.348;2023-03-18T04:07:18;99365.81;;;3.90;55.04
19526;BME280;9907;42.676;26.348;2023-03-18T04:09:44;99370.19;;;3.91;54.23
19526;BME280;9907;42.676;26.348;2023-03-18T04:12:11;99367.19;;;3.98;54.63
19526;BME280;9907;42.676;26.348;2023-03-18T04:14:37;99371.16;;;4.05;55.54
19526;BME280;9907;42.676;26.348;2023-03-18T04:17:03;99377.94;;;3.95;54.80
19526;BME280;9907;42.676;26.348;2023-03-18T04:19:28;99368.38;;;3.92;54.77
19526;BME280;9907;42.676;26.348;2023-03-18T04:21:54;99370.00;;;3.95;54.82
19526;BME280;9907;42.676;26.348;2023-03-18T04:24:21;99372.66;;;3.95;54.66
19526;BME280;9907;42.676;26.348;2023-03-18T04:26:47;99374.63;;;3.91;54.47
19526;BME280;9907;42.676;26.348;2023-03-18T04:29:13;99369.22;;;3.92;55.31
19526;BME280;9907;42.676;26.348;2023-03-18T04:31:39;99371.63;;;3.81;55.27
19526;BME280;9907;42.676;26.348;2023-03-18T04:34:05;99367.88;;;3.85;55.62
19526;BME280;9907;42.676;26.348;2023-03-18T04:36:30;99373.41;;;3.81;55.80
19526;BME280;9907;42.676;26.348;2023-03-18T04:38:57;99379.66;;;3.80;55.94
19526;BME280;9907;42.676;26.348;2023-03-18T04:41:22;99386.28;;;3.87;55.79
19526;BME280;9907;42.676;26.348;2023-03-18T04:43:48;99379.97;;;3.89;56.49
19526;BME280;9907;42.676;26.348;2023-03-18T04:46:15;99387.84;;;3.75;57.05
19526;BME280;9907;42.676;26.348;2023-03-18T04:48:40;99391.84;;;3.82;56.66
19526;BME280;9907;42.676;26.348;2023-03-18T04:51:06;99396.25;;;3.98;56.32
19526;BME280;9907;42.676;26.348;2023-03-18T04:53:35;99390.53;;;4.05;56.39
19526;BME280;9907;42.676;26.348;2023-03-18T04:56:01;99390.16;;;4.11;56.06
19526;BME280;9907;42.676;26.348;2023-03-18T04:58:28;99394.06;;;4.20;55.77
19526;BME280;9907;42.676;26.348;2023-03-18T05:00:54;99397.13;;;4.28;55.58
19526;BME280;9907;42.676;26.348;2023-03-18T05:03:22;99396.50;;;4.38;54.89
19526;BME280;9907;42.676;26.348;2023-03-18T05:05:48;99406.63;;;4.46;55.57
19526;BME280;9907;42.676;26.348;2023-03-18T05:08:14;99403.06;;;4.47;57.28
19526;BME280;9907;42.676;26.348;2023-03-18T05:10:41;99406.84;;;4.57;56.69
19526;BME280;9907;42.676;26.348;2023-03-18T05:13:06;99414.03;;;4.69;56.19
19526;BME280;9907;42.676;26.348;2023-03-18T05:15:32;99413.78;;;4.88;55.38
19526;BME280;9907;42.676;26.348;2023-03-18T05:17:59;99420.44;;;5.23;54.49
19526;BME280;9907;42.676;26.348;2023-03-18T05:20:24;99416.94;;;5.37;54.65
19526;BME280;9907;42.676;26.348;2023-03-18T05:22:50;99415.97;;;5.52;53.68
19526;BME280;9907;42.676;26.348;2023-03-18T05:25:16;99416.75;;;5.54;52.24
19526;BME280;9907;42.676;26.348;2023-03-18T05:27:43;99410.47;;;5.55;52.30
19526;BME280;9907;42.676;26.348;2023-03-18T05:30:09;99425.81;;;5.64;51.74
19526;BME280;9907;42.676;26.348;2023-03-18T05:32:35;99426.06;;;5.74;50.62
19526;BME280;9907;42.676;26.348;2023-03-18T05:35:01;99422.47;;;5.75;51.57
19526;BME280;9907;42.676;26.348;2023-03-18T05:37:28;99424.19;;;5.76;50.39
19526;BME280;9907;42.676;26.348;2023-03-18T05:39:53;99427.16;;;5.84;51.25
19526;BME280;9907;42.676;26.348;2023-03-18T05:42:19;99422.38;;;5.91;49.78
19526;BME280;9907;42.676;26.348;2023-03-18T05:44:45;99422.84;;;6.10;49.83
19526;BME280;9907;42.676;26.348;2023-03-18T05:47:10;99430.38;;;6.30;49.75
19526;BME280;9907;42.676;26.348;2023-03-18T05:49:36;99425.34;;;6.52;49.84
19526;BME280;9907;42.676;26.348;2023-03-18T05:52:02;99423.50;;;6.79;50.32
19526;BME280;9907;42.676;26.348;2023-03-18T05:54:28;99427.09;;;6.78;50.10
19526;BME280;9907;42.676;26.348;2023-03-18T05:56:54;99423.66;;;6.76;50.22
19526;BME280;9907;42.676;26.348;2023-03-18T05:59:21;99423.38;;;6.81;49.55
19526;BME280;9907;42.676;26.348;2023-03-18T06:01:48;99420.19;;;6.89;49.16
19526;BME280;9907;42.676;26.348;2023-03-18T06:04:14;99417.13;;;7.20;49.27
19526;BME280;9907;42.676;26.348;2023-03-18T06:06:41;99419.22;;;7.40;47.68
19526;BME280;9907;42.676;26.348;2023-03-18T06:09:08;99419.00;;;7.56;47.81
19526;BME280;9907;42.676;26.348;2023-03-18T06:11:36;99428.22;;;7.75;48.30
19526;BME280;9907;42.676;26.348;2023-03-18T06:14:03;99417.34;;;8.02;47.93
19526;BME280;9907;42.676;26.348;2023-03-18T06:16:29;99409.94;;;7.95;48.52
19526;BME280;9907;42.676;26.348;2023-03-18T06:18:55;99402.13;;;7.80;46.69
19526;BME280;9907;42.676;26.348;2023-03-18T06:21:21;99406.94;;;7.75;45.71
19526;BME280;9907;42.676;26.348;2023-03-18T06:23:47;99409.13;;;7.81;45.30
19526;BME280;9907;42.676;26.348;2023-03-18T06:26:14;99410.63;;;7.86;45.42
19526;BME280;9907;42.676;26.348;2023-03-18T06:28:40;99407.19;;;7.83;45.29
19526;BME280;9907;42.676;26.348;2023-03-18T06:31:08;99411.34;;;7.88;46.25
19526;BME280;9907;42.676;26.348;2023-03-18T06:33:35;99404.50;;;7.96;46.29
19526;BME280;9907;42.676;26.348;2023-03-18T06:36:01;99420.28;;;8.23;46.68
19526;BME280;9907;42.676;26.348;2023-03-18T06:38:27;99406.81;;;8.37;45.93
19526;BME280;9907;42.676;26.348;2023-03-18T06:40:53;99405.03;;;8.49;45.13
19526;BME280;9907;42.676;26.348;2023-03-18T06:43:20;99410.84;;;8.54;43.54
19526;BME280;9907;42.676;26.348;2023-03-18T06:45:46;99408.59;;;8.60;44.15
19526;BME280;9907;42.676;26.348;2023-03-18T06:48:12;99408.97;;;8.67;44.19
19526;BME280;9907;42.676;26.348;2023-03-18T06:50:38;99412.81;;;8.52;44.59
19526;BME280;9907;42.676;26.348;2023-03-18T06:53:05;99411.25;;;8.60;43.95
19526;BME280;9907;42.676;26.348;2023-03-18T06:55:31;99409.88;;;8.78;43.57
19526;BME280;9907;42.676;26.348;2023-03-18T06:57:57;99408.41;;;8.74;42.15
19526;BME280;9907;42.676;26.348;2023-03-18T07:00:23;99405.75;;;8.86;40.71
19526;BME280;9907;42.676;26.348;2023-03-18T07:02:49;99416.06;;;8.90;41.85
19526;BME280;9907;42.676;26.348;2023-03-18T07:05:15;99402.88;;;9.00;41.32
19526;BME280;9907;42.676;26.348;2023-03-18T07:07:41;99411.84;;;9.21;41.00
19526;BME280;9907;42.676;26.348;2023-03-18T07:10:25;99409.34;;;9.53;41.18
19526;BME280;9907;42.676;26.348;2023-03-18T07:12:51;99409.81;;;9.69;40.85
19526;BME280;9907;42.676;26.348;2023-03-18T07:15:18;99407.53;;;9.64;39.70
19526;BME280;9907;42.676;26.348;2023-03-18T07:17:48;99412.09;;;9.73;38.54
19526;BME280;9907;42.676;26.348;2023-03-18T07:20:15;99411.72;;;9.89;39.22
19526;BME280;9907;42.676;26.348;2023-03-18T07:22:42;99415.69;;;10.06;38.74
19526;BME280;9907;42.676;26.348;2023-03-18T07:25:08;99404.25;;;10.26;37.78
19526;BME280;9907;42.676;26.348;2023-03-18T07:27:34;99404.75;;;10.09;36.98
19526;BME280;9907;42.676;26.348;2023-03-18T07:30:00;99410.97;;;9.87;37.54
19526;BME280;9907;42.676;26.348;2023-03-18T07:32:26;99409.41;;;9.85;37.60
19526;BME280;9907;42.676;26.348;2023-03-18T07:34:54;99410.75;;;9.90;36.36
19526;BME280;9907;42.676;26.348;2023-03-18T07:37:26;99407.31;;;10.10;35.80
19526;BME280;9907;42.676;26.348;2023-03-18T07:39:52;99405.00;;;10.17;35.85
19526;BME280;9907;42.676;26.348;2023-03-18T07:42:18;99407.63;;;10.28;35.68
19526;BME280;9907;42.676;26.348;2023-03-18T07:44:44;99398.63;;;10.40;35.85
19526;BME280;9907;42.676;26.348;2023-03-18T07:47:09;99396.59;;;10.53;36.32
19526;BME280;9907;42.676;26.348;2023-03-18T07:49:35;99398.25;;;10.65;34.02
19526;BME280;9907;42.676;26.348;2023-03-18T07:52:00;99395.19;;;10.91;36.26
19526;BME280;9907;42.676;26.348;2023-03-18T07:54:26;99407.66;;;10.81;34.53
19526;BME280;9907;42.676;26.348;2023-03-18T07:56:52;99399.22;;;11.06;34.51
19526;BME280;9907;42.676;26.348;2023-03-18T07:59:17;99406.41;;;11.05;33.59
19526;BME280;9907;42.676;26.348;2023-03-18T08:01:43;99406.75;;;10.91;35.15
19526;BME280;9907;42.676;26.348;2023-03-18T08:04:09;99406.22;;;11.48;34.14
19526;BME280;9907;42.676;26.348;2023-03-18T08:06:35;99405.03;;;11.11;34.10
19526;BME280;9907;42.676;26.348;2023-03-18T08:09:01;99392.28;;;11.24;34.18
19526;BME280;9907;42.676;26.348;2023-03-18T08:11:27;99403.09;;;10.92;33.64
19526;BME280;9907;42.676;26.348;2023-03-18T08:13:53;99402.25;;;10.92;33.81
19526;BME280;9907;42.676;26.348;2023-03-18T08:16:18;99395.63;;;11.16;33.33
19526;BME280;9907;42.676;26.348;2023-03-18T08:18:44;99400.75;;;11.19;33.47
19526;BME280;9907;42.676;26.348;2023-03-18T08:21:10;99405.63;;;10.52;33.44
19526;BME280;9907;42.676;26.348;2023-03-18T08:23:36;99408.28;;;10.20;34.06
19526;BME280;9907;42.676;26.348;2023-03-18T08:26:02;99401.91;;;10.64;34.04
19526;BME280;9907;42.676;26.348;2023-03-18T08:28:28;99393.22;;;11.13;33.62
19526;BME280;9907;42.676;26.348;2023-03-18T08:30:56;99396.25;;;10.99;33.85
19526;BME280;9907;42.676;26.348;2023-03-18T08:33:24;99396.63;;;10.95;34.26
19526;BME280;9907;42.676;26.348;2023-03-18T08:35:53;99398.88;;;10.90;34.94
19526;BME280;9907;42.676;26.348;2023-03-18T08:38:20;99386.94;;;11.24;34.12
19526;BME280;9907;42.676;26.348;2023-03-18T08:40:46;99385.47;;;11.10;33.97
19526;BME280;9907;42.676;26.348;2023-03-18T08:43:11;99391.41;;;10.72;34.89
19526;BME280;9907;42.676;26.348;2023-03-18T08:45:37;99381.72;;;10.92;34.77
19526;BME280;9907;42.676;26.348;2023-03-18T08:48:04;99374.97;;;11.18;35.36
19526;BME280;9907;42.676;26.348;2023-03-18T08:50:30;99389.63;;;11.24;34.79
19526;BME280;9907;42.676;26.348;2023-03-18T08:52:56;99391.69;;;11.11;34.52
19526;BME280;9907;42.676;26.348;2023-03-18T08:55:28;99376.69;;;11.19;35.47
19526;BME280;9907;42.676;26.348;2023-03-18T08:57:54;99376.66;;;11.50;35.58
19526;BME280;9907;42.676;26.348;2023-03-18T09:00:20;99374.66;;;11.73;35.32
19526;BME280;9907;42.676;26.348;2023-03-18T09:02:46;99378.81;;;11.56;34.98
19526;BME280;9907;42.676;26.348;2023-03-18T09:05:12;99380.81;;;11.33;35.14
19526;BME280;9907;42.676;26.348;2023-03-18T09:07:38;99382.75;;;11.31;36.07
19526;BME280;9907;42.676;26.348;2023-03-18T09:10:04;99381.31;;;11.57;35.57
19526;BME280;9907;42.676;26.348;2023-03-18T09:12:30;99383.09;;;11.38;35.66
19526;BME280;9907;42.676;26.348;2023-03-18T09:14:56;99374.59;;;11.02;35.67
19526;BME280;9907;42.676;26.348;2023-03-18T09:17:21;99374.31;;;11.56;36.16
19526;BME280;9907;42.676;26.348;2023-03-18T09:19:49;99378.19;;;11.83;35.99
19526;BME280;9907;42.676;26.348;2023-03-18T09:22:15;99378.16;;;11.73;35.71
19526;BME280;9907;42.676;26.348;2023-03-18T09:24:42;99371.13;;;11.72;35.50
19526;BME280;9907;42.676;26.348;2023-03-18T09:27:07;99369.47;;;11.90;35.78
19526;BME280;9907;42.676;26.348;2023-03-18T09:29:33;99360.50;;;12.20;35.86
19526;BME280;9907;42.676;26.348;2023-03-18T09:31:58;99354.88;;;12.13;35.01
19526;BME280;9907;42.676;26.348;2023-03-18T09:34:25;99361.63;;;12.08;36.84
19526;BME280;9907;42.676;26.348;2023-03-18T09:36:51;99363.59;;;12.35;35.79
19526;BME280;9907;42.676;26.348;2023-03-18T09:39:20;99361.19;;;12.03;35.72
19526;BME280;9907;42.676;26.348;2023-03-18T09:42:12;99363.19;;;12.01;36.56
19526;BME280;9907;42.676;26.348;2023-03-18T09:44:41;99347.13;;;12.10;37.30
19526;BME280;9907;42.676;26.348;2023-03-18T09:50:31;99354.88;;;12.04;35.93
19526;BME280;9907;42.676;26.348;2023-03-18T09:53:10;99358.81;;;12.09;36.01
19526;BME280;9907;42.676;26.348;2023-03-18T09:55:42;99358.53;;;12.03;35.66
19526;BME280;9907;42.676;26.348;2023-03-18T09:58:27;99357.13;;;11.68;35.90
19526;BME280;9907;42.676;26.348;2023-03-18T10:01:00;99348.63;;;11.94;36.84
19526;BME280;9907;42.676;26.348;2023-03-18T10:03:34;99350.22;;;12.25;36.49
19526;BME280;9907;42.676;26.348;2023-03-18T10:19:17;99352.63;;;11.69;35.41
19526;BME280;9907;42.676;26.348;2023-03-18T10:22:02;99341.88;;;11.50;34.98
19526;BME280;9907;42.676;26.348;2023-03-18T10:24:41;99325.88;;;11.59;34.81
19526;BME280;9907;42.676;26.348;2023-03-18T10:27:23;99335.06;;;11.76;35.42
19526;BME280;9907;42.676;26.348;2023-03-18T10:30:37;99328.84;;;11.66;35.00
19526;BME280;9907;42.676;26.348;2023-03-18T10:35:36;99338.41;;;11.29;35.29
19526;BME280;9907;42.676;26.348;2023-03-18T10:38:18;99325.81;;;11.50;35.54
19526;BME280;9907;42.676;26.348;2023-03-18T10:40:47;99332.81;;;11.71;35.85
19526;BME280;9907;42.676;26.348;2023-03-18T10:43:19;99340.88;;;11.41;35.14
19526;BME280;9907;42.676;26.348;2023-03-18T10:45:48;99334.81;;;11.09;35.16
19526;BME280;9907;42.676;26.348;2023-03-18T10:51:05;99337.09;;;11.13;34.94
19526;BME280;9907;42.676;26.348;2023-03-18T10:56:34;99300.00;;;11.30;35.69
19526;BME280;9907;42.676;26.348;2023-03-18T10:59:00;99309.78;;;11.10;35.57
19526;BME280;9907;42.676;26.348;2023-03-18T11:01:27;99324.38;;;11.06;35.78
19526;BME280;9907;42.676;26.348;2023-03-18T11:09:17;99313.09;;;10.72;36.31
19526;BME280;9907;42.676;26.348;2023-03-18T11:11:55;99304.88;;;10.85;37.15
19526;BME280;9907;42.676;26.348;2023-03-18T11:14:27;99297.50;;;10.77;36.80
19526;BME280;9907;42.676;26.348;2023-03-18T11:19:49;99297.75;;;10.95;36.56
19526;BME280;9907;42.676;26.348;2023-03-18T11:22:24;99292.56;;;11.03;36.69
19526;BME280;9907;42.676;26.348;2023-03-18T11:27:39;99284.25;;;11.27;36.14
19526;BME280;9907;42.676;26.348;2023-03-18T11:32:54;99271.56;;;11.29;36.66
19526;BME280;9907;42.676;26.348;2023-03-18T11:35:23;99276.69;;;11.41;36.70
19526;BME280;9907;42.676;26.348;2023-03-18T11:37:50;99262.84;;;11.36;36.48
19526;BME280;9907;42.676;26.348;2023-03-18T11:40:26;99264.56;;;11.37;36.09
19526;BME280;9907;42.676;26.348;2023-03-18T11:43:02;99263.66;;;11.27;37.24
19526;BME280;9907;42.676;26.348;2023-03-18T11:45:46;99258.09;;;11.49;37.73
19526;BME280;9907;42.676;26.348;2023-03-18T11:56:47;99255.34;;;11.20;38.38
19526;BME280;9907;42.676;26.348;2023-03-18T12:01:52;99249.81;;;11.12;38.36
19526;BME280;9907;42.676;26.348;2023-03-18T12:04:57;99255.41;;;11.30;38.83
19526;BME280;9907;42.676;26.348;2023-03-18T12:13:06;99251.97;;;10.79;39.57
19526;BME280;9907;42.676;26.348;2023-03-18T12:21:26;99242.81;;;11.11;39.37
19526;BME280;9907;42.676;26.348;2023-03-18T12:34:52;99254.59;;;11.09;39.34
19526;BME280;9907;42.676;26.348;2023-03-18T12:41:05;99241.34;;;10.98;38.63
19526;BME280;9907;42.676;26.348;2023-03-18T12:46:32;99242.25;;;11.08;38.57
19526;BME280;9907;42.676;26.348;2023-03-18T12:49:11;99236.16;;;11.06;38.62
19526;BME280;9907;42.676;26.348;2023-03-18T12:51:49;99259.53;;;10.73;38.09
19526;BME280;9907;42.676;26.348;2023-03-18T12:54:25;99244.47;;;10.72;38.46
19526;BME280;9907;42.676;26.348;2023-03-18T12:56:59;99240.13;;;10.71;38.60
19526;BME280;9907;42.676;26.348;2023-03-18T12:59:32;99242.19;;;10.68;38.44
19526;BME280;9907;42.676;26.348;2023-03-18T13:04:56;99227.66;;;10.82;38.62
19526;BME280;9907;42.676;26.348;2023-03-18T13:10:24;99230.91;;;10.95;38.83
19526;BME280;9907;42.676;26.348;2023-03-18T13:13:00;99232.03;;;10.92;38.48
19526;BME280;9907;42.676;26.348;2023-03-18T13:15:43;99242.44;;;10.86;37.80
19526;BME280;9907;42.676;26.348;2023-03-18T13:18:28;99226.41;;;10.86;38.14
19526;BME280;9907;42.676;26.348;2023-03-18T13:20:57;99238.91;;;10.85;37.78
19526;BME280;9907;42.676;26.348;2023-03-18T13:37:52;99230.03;;;10.85;37.01
19526;BME280;9907;42.676;26.348;2023-03-18T13:40:57;99223.00;;;10.84;37.13
19526;BME280;9907;42.676;26.348;2023-03-18T13:43:26;99224.97;;;10.82;37.10
19526;BME280;9907;42.676;26.348;2023-03-18T13:45:54;99223.41;;;10.79;37.30
19526;BME280;9907;42.676;26.348;2023-03-18T13:48:32;99232.31;;;10.89;37.63
19526;BME280;9907;42.676;26.348;2023-03-18T13:54:01;99218.28;;;10.97;37.88
19526;BME280;9907;42.676;26.348;2023-03-18T13:56:46;99210.00;;;11.00;38.29
19526;BME280;9907;42.676;26.348;2023-03-18T14:04:53;99202.13;;;11.08;38.03
19526;BME280;9907;42.676;26.348;2023-03-18T14:07:22;99210.97;;;10.99;38.15
19526;BME280;9907;42.676;26.348;2023-03-18T14:15:02;99217.13;;;10.90;38.59
19526;BME280;9907;42.676;26.348;2023-03-18T14:22:44;99207.38;;;10.79;38.79
19526;BME280;9907;42.676;26.348;2023-03-18T14:25:35;99223.47;;;10.68;38.31
19526;BME280;9907;42.676;26.348;2023-03-18T14:33:04;99218.09;;;10.89;38.68
19526;BME280;9907;42.676;26.348;2023-03-18T14:35:57;99218.38;;;10.86;38.69
19526;BME280;9907;42.676;26.348;2023-03-18T14:38:33;99213.56;;;10.80;38.15
19526;BME280;9907;42.676;26.348;2023-03-18T14:41:02;99205.03;;;10.86;38.17
19526;BME280;9907;42.676;26.348;2023-03-18T14:46:16;99204.69;;;10.79;38.52
19526;BME280;9907;42.676;26.348;2023-03-18T14:48:42;99199.81;;;10.84;38.43
19526;BME280;9907;42.676;26.348;2023-03-18T14:51:15;99202.88;;;10.80;38.50
19526;BME280;9907;42.676;26.348;2023-03-18T14:53:49;99207.41;;;10.89;38.91
19526;BME280;9907;42.676;26.348;2023-03-18T14:56:19;99202.19;;;10.87;38.96
19526;BME280;9907;42.676;26.348;2023-03-18T14:58:46;99195.97;;;10.77;38.61
19526;BME280;9907;42.676;26.348;2023-03-18T15:01:13;99191.38;;;10.89;38.06
19526;BME280;9907;42.676;26.348;2023-03-18T15:03:46;99193.31;;;10.87;37.80
19526;BME280;9907;42.676;26.348;2023-03-18T15:06:22;99197.69;;;10.88;38.30
19526;BME280;9907;42.676;26.348;2023-03-18T15:09:08;99200.66;;;10.85;38.02
19526;BME280;9907;42.676;26.348;2023-03-18T15:11:43;99206.56;;;10.88;38.23
19526;BME280;9907;42.676;26.348;2023-03-18T15:14:24;99206.97;;;10.84;38.47
19526;BME280;9907;42.676;26.348;2023-03-18T15:16:55;99204.28;;;10.84;38.95
19526;BME280;9907;42.676;26.348;2023-03-18T15:19:21;99217.81;;;10.82;38.97
19526;BME280;9907;42.676;26.348;2023-03-18T15:21:47;99205.53;;;10.80;39.34
19526;BME280;9907;42.676;26.348;2023-03-18T15:24:21;99228.16;;;10.75;38.88
19526;BME280;9907;42.676;26.348;2023-03-18T15:27:04;99219.81;;;10.59;39.08